WZZ2447 LZIB-LZKZ
Flight info
| Callsign | WZZ2447 |
|---|---|
| Flight time | 0h 27m |
| Altitude | 21000 |
| Route | NIT N190 TAKOS |
| Aircraft | A321/M-SDE3FGHIRWY/LB1 |
Departure
| Time | 2026-04-29 20:05 |
|---|---|
| Airport | M. R. Štefánik Airport (LZIB) |
Arrival
| Time | 2026-04-29 20:32 |
|---|---|
| Airport | Košice International Airport (LZKZ) |
| Time | Latitude | Longitude | Altitude | Speed | Heading |
|---|---|---|---|---|---|
| 2026-04-29 19:46 | 48.17091 | 17.20309 | 419 ft | 0 kts | 314° |
| 2026-04-29 19:54 | 48.17084 | 17.20319 | 420 ft | 3 kts | 313° |
| 2026-04-29 19:54 | 48.17071 | 17.20341 | 423 ft | 3 kts | 308° |
| 2026-04-29 19:54 | 48.17060 | 17.20366 | 419 ft | 3 kts | 292° |
| 2026-04-29 19:55 | 48.17055 | 17.20390 | 420 ft | 3 kts | 252° |
| 2026-04-29 19:55 | 48.17059 | 17.20403 | 419 ft | 0 kts | 224° |
| 2026-04-29 19:57 | 48.17057 | 17.20399 | 421 ft | 0 kts | 224° |
| 2026-04-29 19:57 | 48.17029 | 17.20359 | 428 ft | 10 kts | 224° |
| 2026-04-29 19:58 | 48.16979 | 17.20289 | 427 ft | 7 kts | 223° |
| 2026-04-29 19:58 | 48.16940 | 17.20234 | 432 ft | 8 kts | 223° |
| 2026-04-29 19:58 | 48.16901 | 17.20178 | 424 ft | 8 kts | 223° |
| 2026-04-29 19:58 | 48.16866 | 17.20143 | 429 ft | 5 kts | 191° |
| 2026-04-29 19:59 | 48.16825 | 17.20182 | 435 ft | 10 kts | 137° |
| 2026-04-29 19:59 | 48.16760 | 17.20279 | 432 ft | 16 kts | 135° |
| 2026-04-29 19:59 | 48.16680 | 17.20402 | 436 ft | 17 kts | 134° |
| 2026-04-29 19:59 | 48.16600 | 17.20524 | 442 ft | 13 kts | 134° |
| 2026-04-29 20:00 | 48.16560 | 17.20586 | 429 ft | 5 kts | 134° |
| 2026-04-29 20:00 | 48.16552 | 17.20612 | 433 ft | 2 kts | 76° |
| 2026-04-29 20:00 | 48.16566 | 17.20635 | 429 ft | 0 kts | 45° |
| 2026-04-29 20:01 | 48.16567 | 17.20636 | 428 ft | 0 kts | 45° |
| 2026-04-29 20:04 | 48.16603 | 17.20690 | 431 ft | 36 kts | 44° |
| 2026-04-29 20:04 | 48.16983 | 17.21236 | 425 ft | 113 kts | 44° |
| 2026-04-29 20:04 | 48.17680 | 17.22190 | 696 ft | 143 kts | 37° |
| 2026-04-29 20:05 | 48.18385 | 17.23245 | 1478 ft | 145 kts | 43° |
| 2026-04-29 20:05 | 48.19102 | 17.24310 | 2245 ft | 148 kts | 43° |
| 2026-04-29 20:05 | 48.19869 | 17.25425 | 2818 ft | 157 kts | 43° |
| 2026-04-29 20:05 | 48.20659 | 17.26564 | 3434 ft | 159 kts | 43° |
| 2026-04-29 20:06 | 48.21509 | 17.27797 | 3843 ft | 183 kts | 44° |
| 2026-04-29 20:06 | 48.22336 | 17.29410 | 4198 ft | 213 kts | 65° |
| 2026-04-29 20:06 | 48.22680 | 17.31788 | 4517 ft | 252 kts | 80° |
| 2026-04-29 20:06 | 48.22905 | 17.34427 | 5558 ft | 257 kts | 81° |
| 2026-04-29 20:07 | 48.23135 | 17.37092 | 6696 ft | 259 kts | 80° |
| 2026-04-29 20:07 | 48.23371 | 17.39790 | 7734 ft | 263 kts | 79° |
| 2026-04-29 20:07 | 48.23612 | 17.42543 | 8718 ft | 269 kts | 79° |
| 2026-04-29 20:07 | 48.23857 | 17.45355 | 9668 ft | 277 kts | 79° |
| 2026-04-29 20:08 | 48.24114 | 17.48275 | 10464 ft | 289 kts | 79° |
| 2026-04-29 20:08 | 48.24206 | 17.49304 | 10633 ft | 298 kts | 79° |
| 2026-04-29 20:08 | 48.24594 | 17.53595 | 11170 ft | 330 kts | 79° |
| 2026-04-29 20:08 | 48.24913 | 17.57133 | 11533 ft | 354 kts | 79° |
| 2026-04-29 20:09 | 48.25253 | 17.60918 | 11871 ft | 378 kts | 79° |
| 2026-04-29 20:09 | 48.25611 | 17.64937 | 12216 ft | 399 kts | 79° |
| 2026-04-29 20:09 | 48.25983 | 17.69170 | 12565 ft | 420 kts | 79° |
| 2026-04-29 20:09 | 48.26354 | 17.73501 | 13673 ft | 417 kts | 79° |
| 2026-04-29 20:10 | 48.26723 | 17.77842 | 14581 ft | 422 kts | 79° |
| 2026-04-29 20:10 | 48.27105 | 17.82244 | 15325 ft | 428 kts | 78° |
| 2026-04-29 20:10 | 48.27589 | 17.86688 | 16027 ft | 435 kts | 76° |
| 2026-04-29 20:10 | 48.28199 | 17.91166 | 16721 ft | 441 kts | 74° |
| 2026-04-29 20:11 | 48.28894 | 17.95682 | 17424 ft | 447 kts | 73° |
| 2026-04-29 20:11 | 48.29627 | 18.00253 | 18105 ft | 454 kts | 72° |
| 2026-04-29 20:11 | 48.30361 | 18.04897 | 18757 ft | 460 kts | 73° |
| 2026-04-29 20:11 | 48.31081 | 18.09619 | 19349 ft | 467 kts | 73° |
| 2026-04-29 20:12 | 48.31782 | 18.14410 | 19976 ft | 472 kts | 74° |
| 2026-04-29 20:12 | 48.32475 | 18.19264 | 20615 ft | 478 kts | 74° |
| 2026-04-29 20:12 | 48.33167 | 18.24172 | 21159 ft | 484 kts | 74° |
| 2026-04-29 20:12 | 48.33849 | 18.29048 | 22330 ft | 472 kts | 74° |
| 2026-04-29 20:13 | 48.34525 | 18.33892 | 22929 ft | 476 kts | 74° |
| 2026-04-29 20:13 | 48.35216 | 18.38810 | 23179 ft | 486 kts | 74° |
| 2026-04-29 20:13 | 48.35930 | 18.43836 | 23288 ft | 498 kts | 74° |
| 2026-04-29 20:13 | 48.36666 | 18.48988 | 23408 ft | 509 kts | 74° |
| 2026-04-29 20:14 | 48.37404 | 18.54157 | 23693 ft | 515 kts | 74° |
| 2026-04-29 20:14 | 48.38151 | 18.59438 | 24012 ft | 518 kts | 75° |
| 2026-04-29 20:14 | 48.38905 | 18.64825 | 24321 ft | 520 kts | 75° |
| 2026-04-29 20:14 | 48.39602 | 18.69830 | 24603 ft | 522 kts | 75° |
| 2026-04-29 20:15 | 48.40343 | 18.75188 | 24879 ft | 524 kts | 75° |
| 2026-04-29 20:15 | 48.41084 | 18.80561 | 25179 ft | 524 kts | 75° |
| 2026-04-29 20:15 | 48.41811 | 18.85927 | 25272 ft | 523 kts | 75° |
| 2026-04-29 20:15 | 48.42504 | 18.91297 | 25296 ft | 522 kts | 76° |
| 2026-04-29 20:16 | 48.43164 | 18.96672 | 25289 ft | 522 kts | 76° |
| 2026-04-29 20:16 | 48.43803 | 19.02053 | 25290 ft | 522 kts | 77° |
| 2026-04-29 20:16 | 48.44431 | 19.07438 | 25287 ft | 522 kts | 77° |
| 2026-04-29 20:16 | 48.45062 | 19.12823 | 25287 ft | 522 kts | 77° |
| 2026-04-29 20:17 | 48.45700 | 19.18208 | 25284 ft | 522 kts | 77° |
| 2026-04-29 20:17 | 48.46344 | 19.23590 | 25287 ft | 522 kts | 77° |
| 2026-04-29 20:17 | 48.46823 | 19.29055 | 25291 ft | 526 kts | 81° |
| 2026-04-29 20:17 | 48.47179 | 19.34532 | 25289 ft | 524 kts | 82° |
| 2026-04-29 20:18 | 48.47487 | 19.40003 | 25291 ft | 524 kts | 83° |
| 2026-04-29 20:18 | 48.47769 | 19.45475 | 25296 ft | 524 kts | 83° |
| 2026-04-29 20:18 | 48.48040 | 19.50947 | 25298 ft | 523 kts | 83° |
| 2026-04-29 20:18 | 48.48310 | 19.56403 | 25298 ft | 523 kts | 83° |
| 2026-04-29 20:19 | 48.48590 | 19.61869 | 25303 ft | 523 kts | 83° |
| 2026-04-29 20:19 | 48.48878 | 19.67332 | 25300 ft | 523 kts | 83° |
| 2026-04-29 20:19 | 48.49171 | 19.72799 | 25295 ft | 523 kts | 83° |
| 2026-04-29 20:19 | 48.49460 | 19.78261 | 25294 ft | 523 kts | 83° |
| 2026-04-29 20:20 | 48.49747 | 19.83725 | 25290 ft | 523 kts | 83° |
| 2026-04-29 20:20 | 48.50030 | 19.89190 | 25283 ft | 523 kts | 83° |
| 2026-04-29 20:20 | 48.50310 | 19.94651 | 25285 ft | 523 kts | 83° |
| 2026-04-29 20:20 | 48.50587 | 20.00122 | 25286 ft | 523 kts | 83° |
| 2026-04-29 20:21 | 48.50861 | 20.05596 | 25281 ft | 524 kts | 83° |
| 2026-04-29 20:21 | 48.51131 | 20.11069 | 25260 ft | 521 kts | 83° |
| 2026-04-29 20:21 | 48.51392 | 20.16470 | 24638 ft | 513 kts | 83° |
| 2026-04-29 20:21 | 48.51645 | 20.21804 | 23975 ft | 507 kts | 84° |
| 2026-04-29 20:22 | 48.51891 | 20.27011 | 23178 ft | 502 kts | 84° |
| 2026-04-29 20:22 | 48.52141 | 20.32283 | 22401 ft | 495 kts | 84° |
| 2026-04-29 20:22 | 48.52385 | 20.37417 | 21653 ft | 487 kts | 84° |
| 2026-04-29 20:22 | 48.52622 | 20.42485 | 20933 ft | 480 kts | 84° |
| 2026-04-29 20:23 | 48.52848 | 20.47391 | 20265 ft | 473 kts | 84° |
| 2026-04-29 20:23 | 48.53075 | 20.52363 | 19610 ft | 465 kts | 84° |
| 2026-04-29 20:23 | 48.53285 | 20.57090 | 19347 ft | 449 kts | 84° |
| 2026-04-29 20:23 | 48.53209 | 20.61721 | 18665 ft | 436 kts | 92° |
| 2026-04-29 20:24 | 48.52959 | 20.66267 | 16741 ft | 436 kts | 94° |
| 2026-04-29 20:24 | 48.52666 | 20.70613 | 15515 ft | 431 kts | 95° |
| 2026-04-29 20:24 | 48.52336 | 20.75069 | 14576 ft | 423 kts | 95° |
| 2026-04-29 20:24 | 48.52005 | 20.79430 | 13653 ft | 415 kts | 95° |
| 2026-04-29 20:25 | 48.51686 | 20.83714 | 12675 ft | 408 kts | 95° |
| 2026-04-29 20:25 | 48.51384 | 20.87923 | 11621 ft | 397 kts | 94° |
| 2026-04-29 20:25 | 48.51098 | 20.92018 | 10149 ft | 389 kts | 94° |
| 2026-04-29 20:25 | 48.50823 | 20.96020 | 8611 ft | 379 kts | 94° |
| 2026-04-29 20:26 | 48.50555 | 20.99903 | 7258 ft | 365 kts | 94° |
| 2026-04-29 20:26 | 48.50252 | 21.03618 | 5907 ft | 350 kts | 98° |
| 2026-04-29 20:26 | 48.49773 | 21.07102 | 5121 ft | 325 kts | 99° |
| 2026-04-29 20:26 | 48.49286 | 21.10295 | 4522 ft | 300 kts | 99° |
| 2026-04-29 20:27 | 48.48823 | 21.13199 | 4261 ft | 270 kts | 99° |
| 2026-04-29 20:27 | 48.48606 | 21.14965 | 4156 ft | 246 kts | 86° |
| 2026-04-29 20:27 | 48.49321 | 21.17912 | 3285 ft | 228 kts | 41° |
| 2026-04-29 20:27 | 48.50760 | 21.18832 | 2679 ft | 228 kts | 10° |
| 2026-04-29 20:28 | 48.52295 | 21.19234 | 2525 ft | 217 kts | 14° |
| 2026-04-29 20:28 | 48.53714 | 21.19719 | 2508 ft | 200 kts | 15° |
| 2026-04-29 20:28 | 48.55004 | 21.20170 | 2498 ft | 182 kts | 15° |
| 2026-04-29 20:28 | 48.56143 | 21.20567 | 2510 ft | 158 kts | 15° |
| 2026-04-29 20:29 | 48.57187 | 21.20932 | 2382 ft | 151 kts | 15° |
| 2026-04-29 20:29 | 48.58200 | 21.21286 | 2205 ft | 148 kts | 15° |
| 2026-04-29 20:29 | 48.59197 | 21.21634 | 2006 ft | 147 kts | 15° |
| 2026-04-29 20:29 | 48.60166 | 21.21972 | 1799 ft | 139 kts | 14° |
| 2026-04-29 20:30 | 48.61100 | 21.22298 | 1589 ft | 138 kts | 14° |
| 2026-04-29 20:30 | 48.62025 | 21.22630 | 1398 ft | 136 kts | 13° |
| 2026-04-29 20:30 | 48.62947 | 21.22963 | 1204 ft | 136 kts | 12° |
| 2026-04-29 20:30 | 48.63861 | 21.23264 | 999 ft | 133 kts | 11° |
| 2026-04-29 20:31 | 48.64763 | 21.23584 | 834 ft | 133 kts | 12° |
| 2026-04-29 20:31 | 48.65620 | 21.23881 | 757 ft | 116 kts | 12° |
| 2026-04-29 20:31 | 48.66324 | 21.24125 | 757 ft | 93 kts | 13° |
| 2026-04-29 20:31 | 48.66869 | 21.24320 | 759 ft | 67 kts | 13° |
| 2026-04-29 20:32 | 48.67159 | 21.24414 | 760 ft | 9 kts | 13° |
| 2026-04-29 20:32 | 48.67221 | 21.24391 | 753 ft | 11 kts | 313° |
| 2026-04-29 20:32 | 48.67251 | 21.24259 | 755 ft | 14 kts | 284° |
| 2026-04-29 20:32 | 48.67271 | 21.24139 | 755 ft | 12 kts | 284° |
| 2026-04-29 20:33 | 48.67291 | 21.24014 | 757 ft | 8 kts | 282° |
| 2026-04-29 20:33 | 48.67292 | 21.24008 | 752 ft | 0 kts | 282° |
| 2026-04-29 20:33 | 48.67292 | 21.24007 | 752 ft | 0 kts | 282° |
| 2026-04-29 20:34 | 48.67294 | 21.23989 | 756 ft | 4 kts | 282° |
| 2026-04-29 20:35 | 48.67297 | 21.23975 | 755 ft | 2 kts | 282° |
| 2026-04-29 20:35 | 48.67314 | 21.23923 | 754 ft | 5 kts | 324° |
| 2026-04-29 20:35 | 48.67344 | 21.23882 | 755 ft | 5 kts | 293° |
| 2026-04-29 20:35 | 48.67339 | 21.23866 | 755 ft | 2 kts | 230° |
| 2026-04-29 20:36 | 48.67331 | 21.23849 | 755 ft | 0 kts | 236° |